This is the latest recevied weather packets stored in our database for station/object OE5RBO. If no packets are shown the sender has not sent any weather packets the latest 10 day(s).
| Time | Temp. | Humidity | Pressure | Rain* | Wind** | Luminosity | Snow |
|---|---|---|---|---|---|---|---|
| 1777846642 | 17.78° C | 66% | 1011.8 hPa | 0 mm | - | - | - |
| 1777846042 | 17.78° C | 66% | 1011.7 hPa | 0 mm | - | - | - |
| 1777845442 | 17.22° C | 68% | 1011.6 hPa | 0 mm | - | - | - |
| 1777844841 | 15° C | 75% | 1011.5 hPa | 0 mm | - | - | - |
| 1777844241 | 14.44° C | 80% | 1011.3 hPa | 0 mm | - | - | - |
| 1777843640 | 15.56° C | 75% | 1011.3 hPa | 0 mm | - | - | - |
| 1777843040 | 16.11° C | 72% | 1011.1 hPa | 0 mm | - | - | - |
| 1777842440 | 16.67° C | 69% | 1011 hPa | 0 mm | - | - | - |
| 1777841839 | 17.22° C | 64% | 1011 hPa | 0 mm | - | - | - |
| 1777841239 | 17.78° C | 63% | 1011 hPa | 0 mm | - | - | - |
| 1777840639 | 17.22° C | 64% | 1011 hPa | 0 mm | - | - | - |
| 1777840038 | 17.22° C | 64% | 1011 hPa | 0 mm | - | - | - |
| 1777839438 | 17.22° C | 66% | 1011 hPa | 0 mm | - | - | - |
| 1777838237 | 18.33° C | 65% | 1011 hPa | 0 mm | - | - | - |
| 1777837637 | 19.44° C | 59% | 1010.9 hPa | 0 mm | - | - | - |
| 1777837037 | 20° C | 55% | 1010.8 hPa | 0 mm | - | - | - |
| 1777836436 | 19.44° C | 56% | 1010.7 hPa | 0 mm | - | - | - |
| 1777835836 | 20° C | 59% | 1010.7 hPa | 0 mm | - | - | - |
| 1777834035 | 20.56° C | 55% | 1010.8 hPa | 0 mm | - | - | - |
| 1777833434 | 21.11° C | 51% | 1010.8 hPa | 0 mm | - | - | - |
| 1777832834 | 21.67° C | 49% | 1010.6 hPa | 0 mm | - | - | - |
| 1777832234 | 21.67° C | 48% | 1010.6 hPa | 0 mm | - | - | - |
| 1777831633 | 22.22° C | 48% | 1010.7 hPa | 0 mm | - | - | - |
| 1777830432 | 22.22° C | 50% | 1010.7 hPa | 0 mm | - | - | - |
| 1777829832 | 22.78° C | 49% | 1010.7 hPa | 0 mm | - | - | - |
* Rain since midnight (hover to see other rain measurements)
** Current wind speed in m/s (hover to see current wind gust speed)